TAF and METAR

METAR for Ziguinchor Airport

GOGG 270400Z VRB02KT 8000 NSC 23/18 Q1010
Report created 27. feb 05:00
wind 2 knots from various directions visibility 8000 meters No significant clouds. Temperature 23° with dewpoint at 18° (Humidity 73.50%) Pressure 1010 hPa
No TAF available for Ziguinchor Airport